createdAt,value
2023-03-10T00:01:40.696Z,98409.53
2023-03-10T00:04:07.143Z,98407.28
2023-03-10T00:06:36.139Z,98403.66
2023-03-10T00:09:04.984Z,98397.25
2023-03-10T00:11:31.471Z,98395.59
2023-03-10T00:14:00.174Z,98392.78
2023-03-10T00:16:29.089Z,98386.97
2023-03-10T00:18:59.278Z,98384.72
2023-03-10T00:21:28.231Z,98378.69
2023-03-10T00:23:57.229Z,98372.41
2023-03-10T00:26:28.914Z,98366.09
2023-03-10T00:28:55.666Z,98363.63
2023-03-10T00:31:28.050Z,98363.88
2023-03-10T00:33:58.468Z,98364.59
2023-03-10T00:36:27.846Z,98348.22
2023-03-10T00:39:03.593Z,98344.59
2023-03-10T00:41:32.305Z,98342.56
2023-03-10T00:44:00.573Z,98344.47
2023-03-10T00:46:28.071Z,98346.38
2023-03-10T00:48:56.972Z,98346.28
2023-03-10T00:51:42.511Z,98341.97
2023-03-10T00:54:12.455Z,98333.00
2023-03-10T00:56:38.984Z,98331.66
2023-03-10T00:59:06.973Z,98330.50
2023-03-10T01:01:38.329Z,98333.22
2023-03-10T01:04:16.411Z,98328.75
2023-03-10T01:06:44.499Z,98320.44
2023-03-10T01:09:11.110Z,98312.75
2023-03-10T01:11:37.647Z,98309.22
2023-03-10T01:14:08.966Z,98303.63
2023-03-10T01:16:35.515Z,98302.47
2023-03-10T01:19:02.158Z,98298.09
2023-03-10T01:21:33.989Z,98289.59
2023-03-10T01:24:01.496Z,98288.97
2023-03-10T01:26:28.890Z,98286.47
2023-03-10T01:28:55.327Z,98285.06
2023-03-10T01:31:21.970Z,98277.50
2023-03-10T01:33:51.436Z,98270.03
2023-03-10T01:36:21.181Z,98263.75
2023-03-10T01:38:48.203Z,98274.09
2023-03-10T01:41:16.231Z,98275.22
2023-03-10T01:43:44.497Z,98264.25
2023-03-10T01:46:36.970Z,98263.66
2023-03-10T01:49:30.226Z,98257.84
2023-03-10T01:52:13.349Z,98259.31
2023-03-10T01:54:52.204Z,98265.84
2023-03-10T01:57:22.563Z,98255.41
2023-03-10T01:59:50.795Z,98249.63
2023-03-10T02:02:22.337Z,98248.53
2023-03-10T02:04:49.617Z,98256.72
2023-03-10T02:07:19.315Z,98247.47
2023-03-10T02:09:51.167Z,98244.75
2023-03-10T02:12:18.379Z,98241.19
2023-03-10T02:14:47.640Z,98243.91
2023-03-10T02:17:17.174Z,98240.00
2023-03-10T02:19:43.706Z,98229.03
2023-03-10T02:22:12.316Z,98233.88
2023-03-10T02:24:38.773Z,98230.91
2023-03-10T02:27:13.330Z,98226.31
2023-03-10T02:29:59.745Z,98231.97
2023-03-10T02:32:29.040Z,98226.66
2023-03-10T02:34:55.736Z,98229.94
2023-03-10T02:37:26.008Z,98220.72
2023-03-10T02:39:52.745Z,98212.53
2023-03-10T02:42:19.549Z,98212.66
2023-03-10T02:44:47.624Z,98215.94
2023-03-10T02:47:14.193Z,98209.44
2023-03-10T02:49:43.198Z,98208.13
2023-03-10T02:52:21.721Z,98200.44
2023-03-10T02:54:48.213Z,98190.22
2023-03-10T02:57:17.204Z,98200.53
2023-03-10T02:59:43.583Z,98199.44
2023-03-10T03:02:12.218Z,98192.09
2023-03-10T03:04:38.581Z,98193.16
2023-03-10T03:07:05.115Z,98187.25
2023-03-10T03:09:31.545Z,98188.31
2023-03-10T03:11:57.950Z,98176.34
2023-03-10T03:14:24.417Z,98165.84
2023-03-10T03:16:50.976Z,98172.47
2023-03-10T03:19:17.523Z,98177.91
2023-03-10T03:21:49.910Z,98178.47
2023-03-10T03:24:21.256Z,98175.84
2023-03-10T03:26:47.862Z,98171.81
2023-03-10T03:29:15.319Z,98171.56
2023-03-10T03:31:43.332Z,98167.69
2023-03-10T03:34:12.698Z,98164.97
2023-03-10T03:36:41.759Z,98159.00
2023-03-10T03:39:08.196Z,98161.63
2023-03-10T03:41:36.869Z,98158.34
2023-03-10T03:44:05.694Z,98159.50
2023-03-10T03:46:33.501Z,98162.13
2023-03-10T03:49:00.127Z,98153.38
2023-03-10T03:51:27.053Z,98166.19
2023-03-10T03:53:53.865Z,98158.84
2023-03-10T03:56:22.651Z,98160.97
2023-03-10T03:58:49.165Z,98159.31
2023-03-10T04:01:18.088Z,98155.78
2023-03-10T04:03:44.597Z,98155.78
2023-03-10T04:06:11.344Z,98153.50
2023-03-10T04:08:40.216Z,98167.41
2023-03-10T04:11:09.150Z,98154.00
2023-03-10T04:13:36.036Z,98153.66
2023-03-10T04:16:02.638Z,98161.34
2023-03-10T04:18:29.369Z,98150.38
2023-03-10T04:20:56.337Z,98163.50
2023-03-10T04:23:22.851Z,98158.53
2023-03-10T04:25:51.553Z,98150.84
2023-03-10T04:28:20.791Z,98152.03
2023-03-10T04:30:52.843Z,98147.16
2023-03-10T04:33:19.374Z,98132.16
2023-03-10T04:35:51.349Z,98145.19
2023-03-10T04:38:18.234Z,98123.31
2023-03-10T04:40:44.815Z,98120.47
2023-03-10T04:43:13.720Z,98111.38
2023-03-10T04:45:40.258Z,98113.03
2023-03-10T04:48:09.590Z,98107.59
2023-03-10T04:50:36.216Z,98116.38
2023-03-10T04:53:02.753Z,98113.66
2023-03-10T04:55:29.383Z,98107.59
2023-03-10T04:57:56.003Z,98107.38
2023-03-10T05:00:22.653Z,98102.78
2023-03-10T05:02:49.279Z,98108.78
2023-03-10T05:05:16.048Z,98100.63
2023-03-10T05:07:43.281Z,98097.91
2023-03-10T05:10:10.610Z,98091.97
2023-03-10T05:12:40.174Z,98091.41
2023-03-10T05:15:15.804Z,98086.44
2023-03-10T05:17:42.837Z,98082.50
2023-03-10T05:20:10.922Z,98074.72
2023-03-10T05:22:40.210Z,98066.78
2023-03-10T05:25:07.477Z,98063.63
2023-03-10T05:27:35.693Z,98063.63
2023-03-10T05:30:03.640Z,98053.81
2023-03-10T05:32:30.152Z,98053.22
2023-03-10T05:34:56.678Z,98044.13
2023-03-10T05:37:23.395Z,98050.78
2023-03-10T05:39:49.866Z,98051.34
2023-03-10T05:42:16.544Z,98054.06
2023-03-10T05:44:43.158Z,98054.13
2023-03-10T05:47:09.887Z,98048.19
2023-03-10T05:49:38.606Z,98049.22
2023-03-10T05:52:07.057Z,98044.63
2023-03-10T05:54:36.340Z,98036.13
2023-03-10T05:57:05.540Z,98034.22
2023-03-10T05:59:34.115Z,98028.63
2023-03-10T06:02:06.317Z,98025.66
2023-03-10T06:04:33.345Z,98025.53
2023-03-10T06:07:00.763Z,98034.47
2023-03-10T06:09:33.473Z,98021.94
2023-03-10T06:12:03.180Z,98019.03
2023-03-10T06:14:31.824Z,98021.28
2023-03-10T06:16:58.532Z,98005.03
2023-03-10T06:19:26.022Z,98004.78
2023-03-10T06:21:52.568Z,98007.03
2023-03-10T06:24:19.084Z,98014.09
2023-03-10T06:26:45.539Z,98010.66
2023-03-10T06:29:12.158Z,98013.03
2023-03-10T06:31:39.315Z,98016.00
2023-03-10T06:34:06.034Z,98012.56
2023-03-10T06:36:40.348Z,98010.66
2023-03-10T06:39:09.421Z,98008.50
2023-03-10T06:41:36.744Z,98008.75
2023-03-10T06:44:05.694Z,98005.31
2023-03-10T06:46:32.194Z,98004.63
2023-03-10T06:49:01.171Z,98006.03
2023-03-10T06:51:27.558Z,98004.56
2023-03-10T06:53:55.090Z,98003.09
2023-03-10T06:56:22.401Z,98012.50
2023-03-10T06:58:49.410Z,98004.97
2023-03-10T07:01:34.522Z,98001.16
2023-03-10T07:04:01.744Z,97992.66
2023-03-10T07:06:28.884Z,97995.16
2023-03-10T07:08:55.424Z,98004.03
2023-03-10T07:11:23.645Z,98007.31
2023-03-10T07:13:53.664Z,98002.66
2023-03-10T07:16:22.876Z,98006.72
2023-03-10T07:18:50.367Z,98005.41
2023-03-10T07:21:20.846Z,98011.09
2023-03-10T07:23:48.049Z,98020.00
2023-03-10T07:26:16.085Z,98017.41
2023-03-10T07:28:42.572Z,98012.78
2023-03-10T07:31:11.950Z,98015.19
2023-03-10T07:33:38.880Z,98030.78
2023-03-10T07:36:07.989Z,98020.44
2023-03-10T07:38:35.036Z,98014.69
2023-03-10T07:41:02.140Z,98016.97
2023-03-10T07:43:28.609Z,98014.91
2023-03-10T07:45:57.904Z,98020.53
2023-03-10T07:48:24.390Z,98006.84
2023-03-10T07:51:00.798Z,97981.91
2023-03-10T07:53:30.299Z,98006.00
2023-03-10T07:55:57.111Z,98000.75
2023-03-10T07:58:24.628Z,98006.13
2023-03-10T08:00:58.500Z,98014.00
2023-03-10T08:03:26.558Z,98021.28
2023-03-10T08:05:53.622Z,98037.56
2023-03-10T08:08:26.277Z,98055.56
2023-03-10T08:11:10.468Z,98069.13
2023-03-10T08:13:37.880Z,98071.94
2023-03-10T08:16:05.011Z,98065.69
2023-03-10T08:18:31.915Z,98069.31
2023-03-10T08:20:59.482Z,98069.44
2023-03-10T08:23:26.340Z,98079.22
2023-03-10T08:25:57.606Z,98079.06
2023-03-10T08:28:24.256Z,98082.22
2023-03-10T08:31:03.602Z,98090.66
2023-03-10T08:33:32.062Z,98099.56
2023-03-10T08:36:08.226Z,98091.38
2023-03-10T08:38:35.019Z,98084.69
2023-03-10T08:41:23.282Z,98084.88
2023-03-10T08:43:52.830Z,98093.06
2023-03-10T08:46:20.994Z,98083.31
2023-03-10T08:48:48.396Z,98096.09
2023-03-10T08:51:16.252Z,98103.13
2023-03-10T08:53:46.858Z,98099.41
2023-03-10T08:56:19.824Z,98096.25
2023-03-10T08:58:46.905Z,98106.44
2023-03-10T09:01:18.070Z,98098.72
2023-03-10T09:03:46.173Z,98097.06
2023-03-10T09:06:18.068Z,98100.84
2023-03-10T09:08:48.293Z,98106.06
2023-03-10T09:11:18.109Z,98109.59
2023-03-10T09:13:47.049Z,98101.28
2023-03-10T09:16:14.076Z,98100.50
2023-03-10T09:18:41.364Z,98109.59
2023-03-10T09:21:09.134Z,98113.94
2023-03-10T09:23:35.697Z,98113.06
2023-03-10T09:26:02.070Z,98108.75
2023-03-10T09:28:28.697Z,98110.34
2023-03-10T09:30:57.778Z,98111.19
2023-03-10T09:33:25.013Z,98103.66
2023-03-10T09:36:09.868Z,98113.69
2023-03-10T09:38:42.400Z,98109.75
2023-03-10T09:41:28.683Z,98118.56
2023-03-10T09:44:04.459Z,98119.81
2023-03-10T09:47:02.796Z,98119.41
2023-03-10T09:49:39.809Z,98122.41
2023-03-10T09:52:23.878Z,98122.88
2023-03-10T09:55:01.738Z,98107.47
2023-03-10T09:57:31.586Z,98103.78
2023-03-10T10:00:02.483Z,98100.19
2023-03-10T10:02:50.096Z,98099.88
2023-03-10T10:05:24.221Z,98092.63
2023-03-10T10:07:55.295Z,98102.66
2023-03-10T10:10:35.672Z,98099.16
2023-03-10T10:13:15.086Z,98103.22
2023-03-10T10:15:46.202Z,98098.00
2023-03-10T10:18:31.220Z,98102.47
2023-03-10T10:21:05.543Z,98104.38
2023-03-10T10:23:48.920Z,98114.50
2023-03-10T10:26:21.482Z,98103.44
2023-03-10T10:28:54.833Z,98117.75
2023-03-10T10:31:25.013Z,98104.72
2023-03-10T10:34:00.833Z,98123.56
2023-03-10T10:36:31.544Z,98117.09
2023-03-10T10:38:58.833Z,98122.03
2023-03-10T10:41:28.558Z,98116.13
2023-03-10T10:44:17.123Z,98116.94
2023-03-10T10:46:56.809Z,98115.81
2023-03-10T10:49:24.565Z,98094.63
2023-03-10T10:52:18.176Z,98113.00
2023-03-10T10:54:54.197Z,98124.09
2023-03-10T10:57:32.951Z,98127.06
2023-03-10T11:00:26.545Z,98112.50
2023-03-10T11:02:53.615Z,98124.09
2023-03-10T11:05:23.975Z,98117.34
2023-03-10T11:07:51.089Z,98124.34
2023-03-10T11:10:27.715Z,98127.88
2023-03-10T11:13:10.501Z,98124.03
2023-03-10T11:15:51.424Z,98137.31
2023-03-10T11:18:36.116Z,98134.66
2023-03-10T11:21:26.597Z,98131.94
2023-03-10T11:24:11.962Z,98133.59
2023-03-10T11:26:47.050Z,98126.84
2023-03-10T11:29:27.949Z,98139.34
2023-03-10T11:32:21.951Z,98134.09
2023-03-10T11:34:54.902Z,98142.78
2023-03-10T11:37:41.233Z,98136.97
2023-03-10T11:40:27.951Z,98144.00
2023-03-10T11:43:16.186Z,98132.44
2023-03-10T11:45:53.718Z,98127.09
2023-03-10T11:48:32.322Z,98134.34
2023-03-10T11:51:00.481Z,98133.16
2023-03-10T11:53:51.547Z,98129.69
2023-03-10T11:56:24.958Z,98129.25
2023-03-10T11:59:00.917Z,98131.31
2023-03-10T12:01:38.321Z,98117.19
2023-03-10T12:04:18.595Z,98121.13
2023-03-10T12:07:15.812Z,98122.06
2023-03-10T12:09:47.422Z,98112.19
2023-03-10T12:12:26.090Z,98114.13
2023-03-10T12:14:53.630Z,98116.25
2023-03-10T12:17:20.355Z,98122.94
2023-03-10T12:20:10.621Z,98115.91
2023-03-10T12:22:42.497Z,98117.50
2023-03-10T12:25:31.101Z,98120.22
2023-03-10T12:28:13.280Z,98106.16
2023-03-10T12:31:15.439Z,98111.25
2023-03-10T12:33:45.494Z,98101.28
2023-03-10T12:36:33.180Z,98107.22
2023-03-10T12:39:00.760Z,98105.66
2023-03-10T12:41:27.180Z,98108.25
2023-03-10T12:43:53.678Z,98095.94
2023-03-10T12:46:39.712Z,98095.56
2023-03-10T12:49:15.169Z,98098.84
2023-03-10T12:51:48.715Z,98105.25
2023-03-10T12:54:49.460Z,98102.88
2023-03-10T12:57:40.824Z,98102.53
2023-03-10T13:00:25.353Z,98094.38
2023-03-10T13:03:10.281Z,98080.72
2023-03-10T13:06:01.553Z,98083.78
2023-03-10T13:08:39.787Z,98088.72
2023-03-10T13:11:24.280Z,98088.16
2023-03-10T13:14:01.409Z,98093.44
2023-03-10T13:16:27.990Z,98089.41
2023-03-10T13:18:55.072Z,98091.28
2023-03-10T13:21:28.116Z,98084.19
2023-03-10T13:23:54.685Z,98097.25
2023-03-10T13:26:21.925Z,98094.66
2023-03-10T13:29:00.468Z,98102.16
2023-03-10T13:31:32.176Z,98098.47
2023-03-10T13:34:13.663Z,98107.31
2023-03-10T13:36:40.864Z,98107.00
2023-03-10T13:39:18.034Z,98098.72
2023-03-10T13:41:49.921Z,98100.03
2023-03-10T13:44:24.282Z,98104.91
2023-03-10T13:46:56.116Z,98103.84
2023-03-10T13:49:26.907Z,98096.66
2023-03-10T13:51:59.075Z,98095.56
2023-03-10T13:54:35.117Z,98098.53
2023-03-10T13:57:41.551Z,98103.22
2023-03-10T14:00:13.088Z,98118.13
2023-03-10T14:02:40.701Z,98112.34
2023-03-10T14:05:08.484Z,98139.19
2023-03-10T14:07:37.397Z,98126.63
2023-03-10T14:10:07.772Z,98144.22
2023-03-10T14:12:38.746Z,98154.56
2023-03-10T14:15:10.948Z,98164.63
2023-03-10T14:17:41.468Z,98159.75
2023-03-10T14:20:24.953Z,98137.09
2023-03-10T14:22:51.362Z,98158.34
2023-03-10T14:25:19.922Z,98169.47
2023-03-10T14:27:59.388Z,98169.81
2023-03-10T14:30:29.156Z,98176.34
2023-03-10T14:32:57.344Z,98196.00
2023-03-10T14:35:25.937Z,98202.50
2023-03-10T14:37:53.130Z,98209.28
2023-03-10T14:40:22.323Z,98209.53
2023-03-10T14:42:54.367Z,98225.53
2023-03-10T14:45:31.188Z,98221.63
2023-03-10T14:47:59.564Z,98222.47
2023-03-10T14:50:29.618Z,98235.03
2023-03-10T14:52:56.015Z,98237.06
2023-03-10T14:55:22.531Z,98225.66
2023-03-10T14:57:58.483Z,98242.03
2023-03-10T15:00:25.215Z,98263.25
2023-03-10T15:02:51.587Z,98271.78
2023-03-10T15:05:23.641Z,98279.00
2023-03-10T15:07:51.214Z,98300.44
2023-03-10T15:10:22.649Z,98300.56
2023-03-10T15:12:51.157Z,98306.25
2023-03-10T15:15:21.344Z,98312.44
2023-03-10T15:17:47.992Z,98304.38
2023-03-10T15:20:23.055Z,98309.09
2023-03-10T15:22:50.255Z,98324.75
2023-03-10T15:25:19.084Z,98331.09
2023-03-10T15:27:48.297Z,98319.25
2023-03-10T15:30:19.244Z,98334.06
2023-03-10T15:32:46.010Z,98331.34
2023-03-10T15:35:13.497Z,98325.31
2023-03-10T15:37:40.099Z,98332.03
2023-03-10T15:40:07.020Z,98341.50
2023-03-10T15:42:33.700Z,98352.63
2023-03-10T15:45:00.675Z,98373.13
2023-03-10T15:47:28.115Z,98344.94
2023-03-10T15:49:54.626Z,98369.69
2023-03-10T15:52:23.259Z,98372.13
2023-03-10T15:54:50.477Z,98379.00
2023-03-10T15:57:17.332Z,98391.66
2023-03-10T15:59:43.794Z,98398.41
2023-03-10T16:02:12.255Z,98407.97
2023-03-10T16:04:38.836Z,98394.22
2023-03-10T16:07:05.509Z,98394.69
2023-03-10T16:09:33.068Z,98395.53
2023-03-10T16:11:59.517Z,98397.66
2023-03-10T16:14:26.574Z,98388.66
2023-03-10T16:16:52.967Z,98400.97
2023-03-10T16:19:19.760Z,98400.97
2023-03-10T16:21:52.461Z,98422.53
2023-03-10T16:24:19.834Z,98432.47
2023-03-10T16:26:46.320Z,98445.25
2023-03-10T16:29:13.045Z,98455.56
2023-03-10T16:31:39.801Z,98480.25
2023-03-10T16:34:06.648Z,98478.38
2023-03-10T16:36:36.344Z,98477.16
2023-03-10T16:39:10.516Z,98461.09
2023-03-10T16:41:39.898Z,98485.66
2023-03-10T16:44:07.920Z,98472.88
2023-03-10T16:46:34.876Z,98481.88
2023-03-10T16:49:02.091Z,98475.84
2023-03-10T16:51:38.083Z,98490.56
2023-03-10T16:54:10.976Z,98464.72
2023-03-10T16:56:40.756Z,98491.91
2023-03-10T16:59:07.581Z,98468.50
2023-03-10T17:01:34.069Z,98487.16
2023-03-10T17:04:00.623Z,98481.72
2023-03-10T17:06:30.007Z,98491.19
2023-03-10T17:08:57.065Z,98506.66
2023-03-10T17:11:29.355Z,98499.81
2023-03-10T17:13:59.579Z,98495.97
2023-03-10T17:16:30.912Z,98502.47
2023-03-10T17:18:59.130Z,98468.81
2023-03-10T17:21:27.975Z,98469.28
2023-03-10T17:23:55.120Z,98472.84
2023-03-10T17:26:22.095Z,98500.34
2023-03-10T17:28:50.460Z,98508.75
2023-03-10T17:31:28.855Z,98534.25
2023-03-10T17:34:01.195Z,98530.16
2023-03-10T17:36:27.916Z,98529.56
2023-03-10T17:38:59.581Z,98524.03
2023-03-10T17:41:27.410Z,98554.22
2023-03-10T17:43:55.219Z,98564.72
2023-03-10T17:46:27.766Z,98557.06
2023-03-10T17:48:54.738Z,98570.03
2023-03-10T17:51:25.863Z,98536.28
2023-03-10T17:53:53.218Z,98566.22
2023-03-10T17:56:20.118Z,98569.13
2023-03-10T17:58:46.602Z,98567.31
2023-03-10T18:01:16.612Z,98580.94
2023-03-10T18:03:43.275Z,98573.00
2023-03-10T18:06:18.551Z,98552.56
2023-03-10T18:08:45.526Z,98560.72
2023-03-10T18:11:12.365Z,98566.59
2023-03-10T18:13:40.165Z,98573.53
2023-03-10T18:16:08.142Z,98582.31
2023-03-10T18:18:34.707Z,98590.28
2023-03-10T18:21:01.105Z,98571.47
2023-03-10T18:23:27.898Z,98584.00
2023-03-10T18:25:54.396Z,98584.41
2023-03-10T18:28:21.937Z,98590.28
2023-03-10T18:30:51.908Z,98604.88
2023-03-10T18:33:18.695Z,98609.47
2023-03-10T18:35:46.724Z,98628.72
2023-03-10T18:38:16.041Z,98617.22
2023-03-10T18:40:42.943Z,98633.75
2023-03-10T18:43:10.275Z,98651.50
2023-03-10T18:45:39.398Z,98643.38
2023-03-10T18:48:07.553Z,98643.56
2023-03-10T18:50:34.017Z,98638.78
2023-03-10T18:53:05.278Z,98662.38
2023-03-10T18:55:31.709Z,98662.81
2023-03-10T18:57:58.556Z,98691.19
2023-03-10T19:00:25.508Z,98690.97
2023-03-10T19:02:55.770Z,98722.06
2023-03-10T19:05:22.254Z,98738.78
2023-03-10T19:07:48.721Z,98780.13
2023-03-10T19:10:20.745Z,98788.28
2023-03-10T19:12:47.477Z,98829.41
2023-03-10T19:15:16.086Z,98856.13
2023-03-10T19:17:43.052Z,98885.09
2023-03-10T19:20:16.391Z,98885.94
2023-03-10T19:22:43.837Z,98919.75
2023-03-10T19:25:14.491Z,98938.50
2023-03-10T19:27:45.723Z,98946.19
2023-03-10T19:30:17.140Z,98937.22
2023-03-10T19:32:44.743Z,98973.22
2023-03-10T19:35:12.581Z,99001.31
2023-03-10T19:37:43.313Z,99025.41
2023-03-10T19:40:14.575Z,99063.31
2023-03-10T19:42:42.977Z,99049.06
2023-03-10T19:45:14.827Z,99073.84
2023-03-10T19:47:42.342Z,99086.53
2023-03-10T19:50:14.628Z,99095.44
2023-03-10T19:52:49.190Z,99065.59
2023-03-10T19:55:19.530Z,99091.78
2023-03-10T19:57:48.493Z,99108.59
2023-03-10T20:00:25.499Z,99131.50
2023-03-10T20:02:53.957Z,99129.09
2023-03-10T20:05:21.065Z,99138.66
2023-03-10T20:07:47.724Z,99148.63
2023-03-10T20:10:16.150Z,99132.06
2023-03-10T20:12:43.190Z,99179.94
2023-03-10T20:15:10.334Z,99167.19
2023-03-10T20:17:37.292Z,99213.44
2023-03-10T20:20:09.983Z,99194.50
2023-03-10T20:22:40.521Z,99191.72
2023-03-10T20:25:09.603Z,99205.88
2023-03-10T20:27:37.178Z,99221.19
2023-03-10T20:30:19.639Z,99243.78
2023-03-10T20:32:46.195Z,99248.16
2023-03-10T20:35:16.111Z,99254.59
2023-03-10T20:37:42.920Z,99251.44
2023-03-10T20:40:12.196Z,99264.97
2023-03-10T20:42:38.945Z,99250.97
2023-03-10T20:45:07.240Z,99273.63
2023-03-10T20:47:34.010Z,99292.09
2023-03-10T20:50:00.731Z,99292.94
2023-03-10T20:52:29.665Z,99307.97
2023-03-10T20:54:56.044Z,99309.38
2023-03-10T20:57:25.332Z,99314.31
2023-03-10T20:59:55.691Z,99349.94
2023-03-10T21:02:24.694Z,99370.44
2023-03-10T21:04:51.222Z,99395.50
2023-03-10T21:07:17.905Z,99425.91
2023-03-10T21:09:47.425Z,99451.09
2023-03-10T21:12:18.646Z,99452.56
2023-03-10T21:14:45.873Z,99443.81
2023-03-10T21:17:12.438Z,99430.19
2023-03-10T21:19:38.952Z,99448.75
2023-03-10T21:22:10.174Z,99433.53
2023-03-10T21:24:38.934Z,99427.47
2023-03-10T21:27:12.463Z,99460.28
2023-03-10T21:30:00.844Z,99439.47
2023-03-10T21:32:27.934Z,99442.06
2023-03-10T21:34:55.050Z,99447.84
2023-03-10T21:37:23.823Z,99451.19
2023-03-10T21:39:50.262Z,99436.19
2023-03-10T21:42:16.702Z,99437.03
2023-03-10T21:44:43.226Z,99432.47
2023-03-10T21:47:12.186Z,99436.66
2023-03-10T21:49:38.804Z,99417.63
2023-03-10T21:52:05.724Z,99398.88
2023-03-10T21:54:32.365Z,99401.09
2023-03-10T21:57:01.120Z,99399.44
2023-03-10T21:59:27.492Z,99373.56
2023-03-10T22:01:53.957Z,99391.31
2023-03-10T22:04:20.433Z,99388.31
2023-03-10T22:06:46.826Z,99398.28
2023-03-10T22:09:14.306Z,99387.47
2023-03-10T22:11:40.862Z,99401.16
2023-03-10T22:14:07.480Z,99416.19
2023-03-10T22:16:34.066Z,99390.69
2023-03-10T22:19:00.434Z,99378.56
2023-03-10T22:21:26.867Z,99384.34
2023-03-10T22:23:53.744Z,99385.19
2023-03-10T22:26:20.201Z,99379.81
2023-03-10T22:28:46.689Z,99368.91
2023-03-10T22:31:13.292Z,99377.00
2023-03-10T22:33:45.079Z,99375.31
2023-03-10T22:36:12.979Z,99373.34
2023-03-10T22:38:44.149Z,99376.22
2023-03-10T22:41:12.064Z,99370.53
2023-03-10T22:43:38.593Z,99377.94
2023-03-10T22:46:13.179Z,99391.47
2023-03-10T22:48:40.610Z,99400.94
2023-03-10T22:51:09.019Z,99392.69
2023-03-10T22:53:37.865Z,99405.53
2023-03-10T22:56:05.020Z,99404.72
2023-03-10T22:58:31.656Z,99408.22
2023-03-10T23:00:58.250Z,99418.22
2023-03-10T23:03:24.709Z,99402.66
2023-03-10T23:05:53.634Z,99416.81
2023-03-10T23:08:20.278Z,99406.38
2023-03-10T23:10:46.856Z,99411.16
2023-03-10T23:13:15.721Z,99439.84
2023-03-10T23:15:43.730Z,99465.31
2023-03-10T23:18:10.705Z,99470.41
2023-03-10T23:20:41.023Z,99457.09
2023-03-10T23:23:09.217Z,99492.91
2023-03-10T23:25:38.766Z,99488.72
2023-03-10T23:28:07.951Z,99521.09
2023-03-10T23:30:36.251Z,99522.28
2023-03-10T23:33:02.868Z,99541.16
2023-03-10T23:35:31.939Z,99546.56
2023-03-10T23:38:02.586Z,99533.25
2023-03-10T23:40:33.058Z,99531.72
2023-03-10T23:43:01.471Z,99521.63
2023-03-10T23:45:32.092Z,99499.03
2023-03-10T23:48:04.647Z,99486.75
2023-03-10T23:50:39.489Z,99483.53
2023-03-10T23:53:06.983Z,99477.47
2023-03-10T23:55:36.637Z,99499.06
2023-03-10T23:58:03.753Z,99598.50
